SWA193 KSFO-KSAN
Flight info
| Callsign | SWA193 |
|---|---|
| Flight time | 1h 12m |
| Altitude | 35000 |
| Route | WESLA5 YYUNG LAX COMIX2 |
| Aircraft | B738/M-SDE2E3FGHIRWXY/LB1 |
Departure
| Time | 2026-05-06 22:13 |
|---|---|
| Airport | San Francisco International Airport (KSFO) |
Arrival
| Time | 2026-05-06 23:26 |
|---|---|
| Airport | San Diego International Airport (KSAN) |
| Time | Latitude | Longitude | Altitude | Speed | Heading |
|---|---|---|---|---|---|
| 2026-05-06 21:08 | 37.61643 | -122.38081 | 39 ft | 0 kts | 345° |
| 2026-05-06 22:02 | 37.61628 | -122.38076 | 21 ft | 4 kts | 330° |
| 2026-05-06 22:02 | 37.61606 | -122.38057 | 23 ft | 3 kts | 331° |
| 2026-05-06 22:03 | 37.61586 | -122.38044 | 22 ft | 4 kts | 342° |
| 2026-05-06 22:03 | 37.61561 | -122.38039 | 21 ft | 4 kts | 9° |
| 2026-05-06 22:03 | 37.61545 | -122.38045 | 21 ft | 0 kts | 28° |
| 2026-05-06 22:06 | 37.61549 | -122.38042 | 21 ft | 1 kts | 28° |
| 2026-05-06 22:06 | 37.61565 | -122.38031 | 21 ft | 5 kts | 27° |
| 2026-05-06 22:06 | 37.61615 | -122.37999 | 23 ft | 11 kts | 27° |
| 2026-05-06 22:07 | 37.61679 | -122.37929 | 21 ft | 13 kts | 69° |
| 2026-05-06 22:07 | 37.61670 | -122.37815 | 21 ft | 13 kts | 101° |
| 2026-05-06 22:07 | 37.61659 | -122.37704 | 21 ft | 13 kts | 97° |
| 2026-05-06 22:07 | 37.61648 | -122.37595 | 21 ft | 12 kts | 97° |
| 2026-05-06 22:08 | 37.61637 | -122.37489 | 21 ft | 12 kts | 97° |
| 2026-05-06 22:08 | 37.61626 | -122.37387 | 21 ft | 12 kts | 98° |
| 2026-05-06 22:08 | 37.61615 | -122.37287 | 21 ft | 11 kts | 99° |
| 2026-05-06 22:08 | 37.61586 | -122.37196 | 21 ft | 11 kts | 117° |
| 2026-05-06 22:09 | 37.61552 | -122.37111 | 21 ft | 11 kts | 117° |
| 2026-05-06 22:09 | 37.61518 | -122.37028 | 21 ft | 11 kts | 117° |
| 2026-05-06 22:09 | 37.61480 | -122.36944 | 21 ft | 12 kts | 125° |
| 2026-05-06 22:09 | 37.61423 | -122.36865 | 22 ft | 14 kts | 135° |
| 2026-05-06 22:10 | 37.61355 | -122.36756 | 23 ft | 18 kts | 118° |
| 2026-05-06 22:10 | 37.61298 | -122.36614 | 22 ft | 18 kts | 117° |
| 2026-05-06 22:10 | 37.61239 | -122.36478 | 21 ft | 17 kts | 119° |
| 2026-05-06 22:10 | 37.61183 | -122.36347 | 21 ft | 17 kts | 117° |
| 2026-05-06 22:11 | 37.61130 | -122.36219 | 23 ft | 16 kts | 118° |
| 2026-05-06 22:11 | 37.61076 | -122.36096 | 22 ft | 16 kts | 119° |
| 2026-05-06 22:11 | 37.61049 | -122.35972 | 21 ft | 15 kts | 79° |
| 2026-05-06 22:11 | 37.61120 | -122.35884 | 24 ft | 14 kts | 29° |
| 2026-05-06 22:12 | 37.61187 | -122.35879 | 21 ft | 10 kts | 308° |
| 2026-05-06 22:12 | 37.61214 | -122.35941 | 22 ft | 8 kts | 297° |
| 2026-05-06 22:12 | 37.61309 | -122.36168 | 23 ft | 64 kts | 298° |
| 2026-05-06 22:12 | 37.61621 | -122.36907 | 22 ft | 124 kts | 299° |
| 2026-05-06 22:13 | 37.62070 | -122.38014 | 310 ft | 149 kts | 295° |
| 2026-05-06 22:13 | 37.62555 | -122.39219 | 904 ft | 160 kts | 296° |
| 2026-05-06 22:13 | 37.63070 | -122.40511 | 1508 ft | 168 kts | 295° |
| 2026-05-06 22:13 | 37.63609 | -122.41830 | 2243 ft | 173 kts | 300° |
| 2026-05-06 22:14 | 37.64233 | -122.43213 | 2780 ft | 189 kts | 301° |
| 2026-05-06 22:14 | 37.64907 | -122.44695 | 3280 ft | 203 kts | 300° |
| 2026-05-06 22:14 | 37.65568 | -122.46206 | 3759 ft | 211 kts | 298° |
| 2026-05-06 22:14 | 37.66276 | -122.47920 | 4128 ft | 231 kts | 300° |
| 2026-05-06 22:15 | 37.66933 | -122.49870 | 4491 ft | 254 kts | 286° |
| 2026-05-06 22:15 | 37.66769 | -122.52116 | 5051 ft | 271 kts | 246° |
| 2026-05-06 22:15 | 37.65547 | -122.53963 | 5706 ft | 281 kts | 215° |
| 2026-05-06 22:15 | 37.63710 | -122.54803 | 6453 ft | 284 kts | 184° |
| 2026-05-06 22:16 | 37.61772 | -122.54563 | 7243 ft | 282 kts | 162° |
| 2026-05-06 22:16 | 37.59974 | -122.53610 | 8124 ft | 278 kts | 152° |
| 2026-05-06 22:16 | 37.58210 | -122.52502 | 8757 ft | 289 kts | 154° |
| 2026-05-06 22:16 | 37.56346 | -122.51448 | 9419 ft | 296 kts | 155° |
| 2026-05-06 22:17 | 37.54469 | -122.50426 | 10220 ft | 299 kts | 155° |
| 2026-05-06 22:17 | 37.52508 | -122.49364 | 10617 ft | 317 kts | 155° |
| 2026-05-06 22:17 | 37.50398 | -122.48228 | 10794 ft | 340 kts | 156° |
| 2026-05-06 22:17 | 37.48014 | -122.47623 | 10994 ft | 361 kts | 181° |
| 2026-05-06 22:18 | 37.45511 | -122.47975 | 11513 ft | 368 kts | 187° |
| 2026-05-06 22:18 | 37.42963 | -122.48464 | 12156 ft | 370 kts | 188° |
| 2026-05-06 22:18 | 37.40411 | -122.48974 | 12800 ft | 373 kts | 187° |
| 2026-05-06 22:18 | 37.37825 | -122.49488 | 13352 ft | 378 kts | 187° |
| 2026-05-06 22:19 | 37.35203 | -122.49998 | 13933 ft | 382 kts | 187° |
| 2026-05-06 22:19 | 37.32585 | -122.50497 | 14501 ft | 385 kts | 187° |
| 2026-05-06 22:19 | 37.29913 | -122.51000 | 15051 ft | 389 kts | 187° |
| 2026-05-06 22:19 | 37.27219 | -122.51502 | 15634 ft | 392 kts | 187° |
| 2026-05-06 22:20 | 37.24528 | -122.52001 | 16206 ft | 395 kts | 187° |
| 2026-05-06 22:20 | 37.21804 | -122.52506 | 16757 ft | 399 kts | 187° |
| 2026-05-06 22:20 | 37.19027 | -122.53020 | 17305 ft | 403 kts | 187° |
| 2026-05-06 22:20 | 37.16253 | -122.53533 | 17778 ft | 409 kts | 187° |
| 2026-05-06 22:21 | 37.13425 | -122.54056 | 18350 ft | 411 kts | 187° |
| 2026-05-06 22:21 | 37.10583 | -122.54581 | 18831 ft | 414 kts | 187° |
| 2026-05-06 22:21 | 37.07713 | -122.55111 | 19290 ft | 417 kts | 187° |
| 2026-05-06 22:21 | 37.04858 | -122.55637 | 19743 ft | 420 kts | 187° |
| 2026-05-06 22:22 | 37.01926 | -122.55988 | 20143 ft | 423 kts | 175° |
| 2026-05-06 22:22 | 36.99070 | -122.55215 | 20722 ft | 420 kts | 157° |
| 2026-05-06 22:22 | 36.96468 | -122.53586 | 21104 ft | 423 kts | 148° |
| 2026-05-06 22:22 | 36.93912 | -122.51707 | 21513 ft | 426 kts | 147° |
| 2026-05-06 22:23 | 36.91387 | -122.49793 | 21912 ft | 429 kts | 147° |
| 2026-05-06 22:23 | 36.88815 | -122.47837 | 22301 ft | 433 kts | 147° |
| 2026-05-06 22:23 | 36.86225 | -122.45884 | 22723 ft | 435 kts | 147° |
| 2026-05-06 22:23 | 36.83633 | -122.43950 | 23088 ft | 439 kts | 148° |
| 2026-05-06 22:24 | 36.80980 | -122.41987 | 23422 ft | 443 kts | 148° |
| 2026-05-06 22:24 | 36.78347 | -122.40051 | 23825 ft | 444 kts | 148° |
| 2026-05-06 22:24 | 36.75666 | -122.38086 | 24101 ft | 448 kts | 148° |
| 2026-05-06 22:24 | 36.72970 | -122.36114 | 24451 ft | 448 kts | 148° |
| 2026-05-06 22:25 | 36.70271 | -122.34143 | 24786 ft | 450 kts | 148° |
| 2026-05-06 22:25 | 36.67556 | -122.32161 | 25011 ft | 454 kts | 148° |
| 2026-05-06 22:25 | 36.64860 | -122.30194 | 25367 ft | 454 kts | 148° |
| 2026-05-06 22:25 | 36.62118 | -122.28195 | 25700 ft | 455 kts | 148° |
| 2026-05-06 22:26 | 36.59367 | -122.26191 | 25980 ft | 457 kts | 148° |
| 2026-05-06 22:26 | 36.56646 | -122.24210 | 26238 ft | 459 kts | 148° |
| 2026-05-06 22:26 | 36.53869 | -122.22191 | 26503 ft | 461 kts | 148° |
| 2026-05-06 22:26 | 36.51119 | -122.20191 | 26772 ft | 463 kts | 148° |
| 2026-05-06 22:27 | 36.48337 | -122.18171 | 27036 ft | 464 kts | 148° |
| 2026-05-06 22:27 | 36.45518 | -122.16126 | 27278 ft | 466 kts | 148° |
| 2026-05-06 22:27 | 36.42714 | -122.14094 | 27525 ft | 467 kts | 148° |
| 2026-05-06 22:27 | 36.39925 | -122.12073 | 27732 ft | 470 kts | 148° |
| 2026-05-06 22:28 | 36.37092 | -122.10023 | 27978 ft | 471 kts | 148° |
| 2026-05-06 22:28 | 36.34254 | -122.07971 | 28201 ft | 472 kts | 148° |
| 2026-05-06 22:28 | 36.31443 | -122.05939 | 28398 ft | 474 kts | 148° |
| 2026-05-06 22:28 | 36.28571 | -122.03866 | 28627 ft | 475 kts | 148° |
| 2026-05-06 22:29 | 36.25733 | -122.01819 | 28856 ft | 476 kts | 148° |
| 2026-05-06 22:29 | 36.22855 | -121.99745 | 29050 ft | 477 kts | 148° |
| 2026-05-06 22:29 | 36.20013 | -121.97698 | 29240 ft | 479 kts | 148° |
| 2026-05-06 22:29 | 36.17117 | -121.95615 | 29419 ft | 480 kts | 148° |
| 2026-05-06 22:30 | 36.14207 | -121.93523 | 29612 ft | 481 kts | 148° |
| 2026-05-06 22:30 | 36.11333 | -121.91458 | 29871 ft | 480 kts | 148° |
| 2026-05-06 22:30 | 36.08433 | -121.89377 | 30187 ft | 479 kts | 148° |
| 2026-05-06 22:30 | 36.05580 | -121.87331 | 30466 ft | 478 kts | 148° |
| 2026-05-06 22:31 | 36.02698 | -121.85266 | 30691 ft | 477 kts | 148° |
| 2026-05-06 22:31 | 35.99939 | -121.83065 | 30889 ft | 474 kts | 137° |
| 2026-05-06 22:31 | 35.97736 | -121.80041 | 31099 ft | 469 kts | 124° |
| 2026-05-06 22:31 | 35.95871 | -121.76941 | 31431 ft | 466 kts | 124° |
| 2026-05-06 22:32 | 35.93923 | -121.73741 | 31705 ft | 464 kts | 124° |
| 2026-05-06 22:32 | 35.91966 | -121.70567 | 31920 ft | 464 kts | 124° |
| 2026-05-06 22:32 | 35.89989 | -121.67394 | 32121 ft | 465 kts | 125° |
| 2026-05-06 22:32 | 35.88012 | -121.64244 | 32358 ft | 464 kts | 125° |
| 2026-05-06 22:33 | 35.86058 | -121.61142 | 32622 ft | 462 kts | 125° |
| 2026-05-06 22:33 | 35.84078 | -121.58006 | 32891 ft | 461 kts | 125° |
| 2026-05-06 22:33 | 35.82107 | -121.54888 | 33117 ft | 460 kts | 125° |
| 2026-05-06 22:33 | 35.80144 | -121.51782 | 33356 ft | 459 kts | 125° |
| 2026-05-06 22:34 | 35.78178 | -121.48676 | 33607 ft | 458 kts | 125° |
| 2026-05-06 22:34 | 35.76237 | -121.45608 | 33825 ft | 458 kts | 125° |
| 2026-05-06 22:34 | 35.74269 | -121.42500 | 34060 ft | 457 kts | 125° |
| 2026-05-06 22:34 | 35.72328 | -121.39439 | 34278 ft | 456 kts | 125° |
| 2026-05-06 22:35 | 35.70373 | -121.36358 | 34464 ft | 456 kts | 125° |
| 2026-05-06 22:35 | 35.68412 | -121.33268 | 34633 ft | 456 kts | 125° |
| 2026-05-06 22:35 | 35.66477 | -121.30224 | 34827 ft | 455 kts | 124° |
| 2026-05-06 22:35 | 35.64530 | -121.27163 | 35072 ft | 453 kts | 124° |
| 2026-05-06 22:36 | 35.60645 | -121.21063 | 35137 ft | 456 kts | 124° |
| 2026-05-06 22:36 | 35.56722 | -121.14914 | 35132 ft | 455 kts | 124° |
| 2026-05-06 22:37 | 35.52836 | -121.08835 | 35136 ft | 453 kts | 124° |
| 2026-05-06 22:37 | 35.49009 | -121.02652 | 35216 ft | 454 kts | 122° |
| 2026-05-06 22:38 | 35.47212 | -120.99541 | 35470 ft | 450 kts | 121° |
| 2026-05-06 22:38 | 35.45423 | -120.96401 | 35669 ft | 449 kts | 121° |
| 2026-05-06 22:38 | 35.41822 | -120.90090 | 35849 ft | 453 kts | 121° |
| 2026-05-06 22:39 | 35.39999 | -120.86921 | 35968 ft | 454 kts | 121° |
| 2026-05-06 22:39 | 35.38190 | -120.83797 | 36156 ft | 453 kts | 121° |
| 2026-05-06 22:39 | 35.36361 | -120.80651 | 36361 ft | 451 kts | 121° |
| 2026-05-06 22:39 | 35.34538 | -120.77522 | 36561 ft | 450 kts | 121° |
| 2026-05-06 22:40 | 35.32705 | -120.74381 | 36700 ft | 451 kts | 121° |
| 2026-05-06 22:40 | 35.30901 | -120.71292 | 36829 ft | 451 kts | 121° |
| 2026-05-06 22:40 | 35.29061 | -120.68144 | 37009 ft | 451 kts | 121° |
| 2026-05-06 22:40 | 35.27253 | -120.65055 | 37106 ft | 451 kts | 121° |
| 2026-05-06 22:41 | 35.21770 | -120.55697 | 37123 ft | 451 kts | 121° |
| 2026-05-06 22:42 | 35.18107 | -120.49459 | 37112 ft | 449 kts | 121° |
| 2026-05-06 22:42 | 35.14476 | -120.43288 | 37123 ft | 449 kts | 121° |
| 2026-05-06 22:43 | 35.10843 | -120.37121 | 37116 ft | 448 kts | 121° |
| 2026-05-06 22:43 | 35.07185 | -120.30924 | 37131 ft | 448 kts | 121° |
| 2026-05-06 22:44 | 35.03550 | -120.24776 | 37110 ft | 448 kts | 121° |
| 2026-05-06 22:44 | 34.99921 | -120.18650 | 37103 ft | 448 kts | 121° |
| 2026-05-06 22:45 | 34.96259 | -120.12479 | 37096 ft | 447 kts | 121° |
| 2026-05-06 22:45 | 34.92622 | -120.06362 | 37099 ft | 448 kts | 121° |
| 2026-05-06 22:46 | 34.88968 | -120.00227 | 37101 ft | 448 kts | 121° |
| 2026-05-06 22:46 | 34.85293 | -119.94065 | 37089 ft | 448 kts | 121° |
| 2026-05-06 22:47 | 34.81648 | -119.87963 | 37093 ft | 449 kts | 121° |
| 2026-05-06 22:47 | 34.77972 | -119.81822 | 37112 ft | 449 kts | 121° |
| 2026-05-06 22:48 | 34.74278 | -119.75662 | 37096 ft | 450 kts | 121° |
| 2026-05-06 22:48 | 34.70604 | -119.69544 | 37099 ft | 451 kts | 121° |
| 2026-05-06 22:49 | 34.66875 | -119.63349 | 37100 ft | 454 kts | 121° |
| 2026-05-06 22:49 | 34.63134 | -119.57141 | 37081 ft | 454 kts | 121° |
| 2026-05-06 22:50 | 34.59423 | -119.50995 | 37101 ft | 453 kts | 121° |
| 2026-05-06 22:50 | 34.55716 | -119.44867 | 37100 ft | 451 kts | 121° |
| 2026-05-06 22:51 | 34.51992 | -119.38719 | 37091 ft | 451 kts | 121° |
| 2026-05-06 22:51 | 34.48278 | -119.32607 | 37093 ft | 451 kts | 121° |
| 2026-05-06 22:52 | 34.44544 | -119.26462 | 37106 ft | 451 kts | 121° |
| 2026-05-06 22:52 | 34.40836 | -119.20370 | 37112 ft | 451 kts | 121° |
| 2026-05-06 22:53 | 34.37093 | -119.14233 | 37102 ft | 451 kts | 121° |
| 2026-05-06 22:53 | 34.33384 | -119.08163 | 37107 ft | 451 kts | 121° |
| 2026-05-06 22:54 | 34.29639 | -119.02044 | 37110 ft | 452 kts | 121° |
| 2026-05-06 22:54 | 34.25882 | -118.95912 | 37101 ft | 459 kts | 121° |
| 2026-05-06 22:55 | 34.22081 | -118.89728 | 37071 ft | 453 kts | 121° |
| 2026-05-06 22:55 | 34.18358 | -118.83682 | 37066 ft | 449 kts | 121° |
| 2026-05-06 22:56 | 34.14620 | -118.77613 | 36868 ft | 452 kts | 121° |
| 2026-05-06 22:56 | 34.12735 | -118.74554 | 36413 ft | 451 kts | 121° |
| 2026-05-06 22:56 | 34.10853 | -118.71509 | 35848 ft | 448 kts | 121° |
| 2026-05-06 22:56 | 34.09009 | -118.68526 | 35236 ft | 448 kts | 121° |
| 2026-05-06 22:57 | 34.07145 | -118.65519 | 34658 ft | 447 kts | 121° |
| 2026-05-06 22:57 | 34.05281 | -118.62507 | 34024 ft | 447 kts | 121° |
| 2026-05-06 22:57 | 34.03413 | -118.59488 | 33262 ft | 447 kts | 121° |
| 2026-05-06 22:57 | 34.01581 | -118.56533 | 32757 ft | 442 kts | 121° |
| 2026-05-06 22:58 | 33.99745 | -118.53576 | 32297 ft | 437 kts | 121° |
| 2026-05-06 22:58 | 33.97928 | -118.50651 | 31856 ft | 431 kts | 121° |
| 2026-05-06 22:58 | 33.96157 | -118.47799 | 31402 ft | 427 kts | 121° |
| 2026-05-06 22:58 | 33.94371 | -118.44929 | 30973 ft | 422 kts | 121° |
| 2026-05-06 22:59 | 33.92601 | -118.42145 | 30539 ft | 420 kts | 124° |
| 2026-05-06 22:59 | 33.90663 | -118.39516 | 30106 ft | 418 kts | 127° |
| 2026-05-06 22:59 | 33.88650 | -118.36981 | 29609 ft | 415 kts | 128° |
| 2026-05-06 22:59 | 33.86656 | -118.34499 | 29157 ft | 410 kts | 128° |
| 2026-05-06 23:00 | 33.84707 | -118.32040 | 28701 ft | 411 kts | 127° |
| 2026-05-06 23:00 | 33.82719 | -118.29487 | 28262 ft | 423 kts | 127° |
| 2026-05-06 23:00 | 33.80699 | -118.26875 | 27783 ft | 424 kts | 127° |
| 2026-05-06 23:00 | 33.78697 | -118.24291 | 27317 ft | 419 kts | 128° |
| 2026-05-06 23:01 | 33.76723 | -118.21737 | 26841 ft | 413 kts | 127° |
| 2026-05-06 23:01 | 33.74818 | -118.19244 | 26412 ft | 408 kts | 127° |
| 2026-05-06 23:01 | 33.72909 | -118.16731 | 25958 ft | 403 kts | 127° |
| 2026-05-06 23:01 | 33.71660 | -118.15086 | 25676 ft | 400 kts | 127° |
| 2026-05-06 23:02 | 33.69346 | -118.12040 | 25141 ft | 395 kts | 127° |
| 2026-05-06 23:02 | 33.68091 | -118.10390 | 24852 ft | 393 kts | 127° |
| 2026-05-06 23:02 | 33.66270 | -118.07999 | 24429 ft | 390 kts | 127° |
| 2026-05-06 23:02 | 33.63850 | -118.04824 | 23850 ft | 387 kts | 128° |
| 2026-05-06 23:03 | 33.62624 | -118.03218 | 23538 ft | 385 kts | 128° |
| 2026-05-06 23:03 | 33.60835 | -118.00875 | 23066 ft | 382 kts | 128° |
| 2026-05-06 23:03 | 33.59044 | -117.98532 | 22618 ft | 379 kts | 128° |
| 2026-05-06 23:03 | 33.57280 | -117.96227 | 22181 ft | 375 kts | 128° |
| 2026-05-06 23:04 | 33.55521 | -117.93930 | 21773 ft | 372 kts | 128° |
| 2026-05-06 23:04 | 33.53715 | -117.91673 | 21358 ft | 372 kts | 130° |
| 2026-05-06 23:04 | 33.51850 | -117.89516 | 20949 ft | 372 kts | 132° |
| 2026-05-06 23:04 | 33.49953 | -117.87360 | 20548 ft | 380 kts | 132° |
| 2026-05-06 23:05 | 33.48030 | -117.85159 | 20122 ft | 383 kts | 131° |
| 2026-05-06 23:05 | 33.46111 | -117.82948 | 19697 ft | 379 kts | 131° |
| 2026-05-06 23:05 | 33.44244 | -117.80789 | 19286 ft | 375 kts | 131° |
| 2026-05-06 23:05 | 33.42348 | -117.78660 | 18857 ft | 372 kts | 133° |
| 2026-05-06 23:06 | 33.40420 | -117.76603 | 18454 ft | 369 kts | 134° |
| 2026-05-06 23:06 | 33.38493 | -117.74574 | 17986 ft | 366 kts | 134° |
| 2026-05-06 23:06 | 33.36593 | -117.72570 | 17542 ft | 362 kts | 134° |
| 2026-05-06 23:06 | 33.34729 | -117.70594 | 17061 ft | 360 kts | 134° |
| 2026-05-06 23:07 | 33.32862 | -117.68608 | 16644 ft | 356 kts | 134° |
| 2026-05-06 23:07 | 33.31019 | -117.66644 | 16246 ft | 352 kts | 134° |
| 2026-05-06 23:07 | 33.29194 | -117.64697 | 15840 ft | 348 kts | 134° |
| 2026-05-06 23:07 | 33.27404 | -117.62788 | 15300 ft | 351 kts | 134° |
| 2026-05-06 23:08 | 33.25591 | -117.60857 | 15116 ft | 345 kts | 134° |
| 2026-05-06 23:08 | 33.23772 | -117.58928 | 14632 ft | 352 kts | 135° |
| 2026-05-06 23:08 | 33.21954 | -117.57011 | 14154 ft | 355 kts | 135° |
| 2026-05-06 23:08 | 33.20090 | -117.55052 | 13644 ft | 356 kts | 135° |
| 2026-05-06 23:09 | 33.18230 | -117.53097 | 13125 ft | 353 kts | 135° |
| 2026-05-06 23:09 | 33.16417 | -117.51192 | 12613 ft | 350 kts | 135° |
| 2026-05-06 23:09 | 33.14590 | -117.49274 | 12150 ft | 347 kts | 135° |
| 2026-05-06 23:09 | 33.12739 | -117.47441 | 11812 ft | 342 kts | 141° |
| 2026-05-06 23:10 | 33.10809 | -117.45838 | 11553 ft | 335 kts | 143° |
| 2026-05-06 23:10 | 33.08882 | -117.44287 | 11303 ft | 333 kts | 142° |
| 2026-05-06 23:10 | 33.06977 | -117.42731 | 11045 ft | 328 kts | 142° |
| 2026-05-06 23:10 | 33.05145 | -117.41217 | 10792 ft | 321 kts | 142° |
| 2026-05-06 23:11 | 33.03333 | -117.39705 | 10553 ft | 315 kts | 142° |
| 2026-05-06 23:11 | 33.01542 | -117.38201 | 10316 ft | 309 kts | 142° |
| 2026-05-06 23:11 | 32.99800 | -117.36738 | 10079 ft | 304 kts | 142° |
| 2026-05-06 23:11 | 32.98110 | -117.35319 | 9944 ft | 295 kts | 142° |
| 2026-05-06 23:12 | 32.96440 | -117.33918 | 9638 ft | 293 kts | 142° |
| 2026-05-06 23:12 | 32.94787 | -117.32532 | 9399 ft | 288 kts | 142° |
| 2026-05-06 23:12 | 32.93155 | -117.31166 | 9157 ft | 284 kts | 142° |
| 2026-05-06 23:12 | 32.91553 | -117.29827 | 8930 ft | 279 kts | 142° |
| 2026-05-06 23:13 | 32.89990 | -117.28524 | 8708 ft | 275 kts | 142° |
| 2026-05-06 23:13 | 32.88430 | -117.27228 | 8485 ft | 272 kts | 142° |
| 2026-05-06 23:13 | 32.86890 | -117.25948 | 8274 ft | 268 kts | 142° |
| 2026-05-06 23:13 | 32.85374 | -117.24688 | 8072 ft | 266 kts | 142° |
| 2026-05-06 23:14 | 32.83852 | -117.23424 | 7859 ft | 266 kts | 142° |
| 2026-05-06 23:14 | 32.82334 | -117.22163 | 7641 ft | 264 kts | 141° |
| 2026-05-06 23:14 | 32.81134 | -117.20608 | 7410 ft | 257 kts | 113° |
| 2026-05-06 23:14 | 32.80536 | -117.18641 | 7217 ft | 251 kts | 102° |
| 2026-05-06 23:15 | 32.80101 | -117.16624 | 6998 ft | 252 kts | 102° |
| 2026-05-06 23:15 | 32.79677 | -117.14592 | 6803 ft | 253 kts | 103° |
| 2026-05-06 23:15 | 32.79246 | -117.12583 | 6608 ft | 253 kts | 102° |
| 2026-05-06 23:15 | 32.78803 | -117.10567 | 6401 ft | 250 kts | 102° |
| 2026-05-06 23:16 | 32.78356 | -117.08555 | 6020 ft | 254 kts | 102° |
| 2026-05-06 23:16 | 32.77941 | -117.06509 | 5572 ft | 254 kts | 101° |
| 2026-05-06 23:16 | 32.77545 | -117.04480 | 5139 ft | 255 kts | 101° |
| 2026-05-06 23:16 | 32.77167 | -117.02439 | 5007 ft | 250 kts | 101° |
| 2026-05-06 23:17 | 32.76801 | -117.00427 | 4978 ft | 247 kts | 101° |
| 2026-05-06 23:17 | 32.76447 | -116.98474 | 4961 ft | 235 kts | 101° |
| 2026-05-06 23:17 | 32.76111 | -116.96638 | 4960 ft | 226 kts | 101° |
| 2026-05-06 23:17 | 32.75775 | -116.94828 | 4961 ft | 223 kts | 101° |
| 2026-05-06 23:18 | 32.75441 | -116.93012 | 4978 ft | 225 kts | 101° |
| 2026-05-06 23:18 | 32.75107 | -116.91175 | 4985 ft | 228 kts | 101° |
| 2026-05-06 23:18 | 32.74766 | -116.89323 | 4976 ft | 229 kts | 104° |
| 2026-05-06 23:18 | 32.74007 | -116.87705 | 4966 ft | 231 kts | 135° |
| 2026-05-06 23:19 | 32.72627 | -116.86817 | 4955 ft | 222 kts | 169° |
| 2026-05-06 23:19 | 32.71168 | -116.86990 | 4973 ft | 207 kts | 206° |
| 2026-05-06 23:19 | 32.70128 | -116.88086 | 4970 ft | 204 kts | 242° |
| 2026-05-06 23:19 | 32.69602 | -116.89629 | 4974 ft | 201 kts | 251° |
| 2026-05-06 23:20 | 32.69110 | -116.91214 | 4714 ft | 205 kts | 251° |
| 2026-05-06 23:20 | 32.68624 | -116.92771 | 4433 ft | 202 kts | 251° |
| 2026-05-06 23:20 | 32.68140 | -116.94331 | 4095 ft | 201 kts | 251° |
| 2026-05-06 23:20 | 32.67655 | -116.95878 | 3817 ft | 194 kts | 250° |
| 2026-05-06 23:21 | 32.67205 | -116.97310 | 3762 ft | 178 kts | 252° |
| 2026-05-06 23:21 | 32.67095 | -116.98705 | 3780 ft | 172 kts | 282° |
| 2026-05-06 23:21 | 32.67429 | -117.00112 | 3610 ft | 181 kts | 289° |
| 2026-05-06 23:21 | 32.67817 | -117.01526 | 3365 ft | 179 kts | 289° |
| 2026-05-06 23:22 | 32.68331 | -117.02859 | 3073 ft | 175 kts | 298° |
| 2026-05-06 23:22 | 32.68900 | -117.04101 | 2802 ft | 171 kts | 298° |
| 2026-05-06 23:22 | 32.69466 | -117.05324 | 2543 ft | 167 kts | 298° |
| 2026-05-06 23:22 | 32.70009 | -117.06522 | 2316 ft | 163 kts | 297° |
| 2026-05-06 23:23 | 32.70517 | -117.07700 | 2061 ft | 157 kts | 295° |
| 2026-05-06 23:23 | 32.70941 | -117.08882 | 1747 ft | 153 kts | 289° |
| 2026-05-06 23:23 | 32.71244 | -117.10028 | 1599 ft | 137 kts | 285° |
| 2026-05-06 23:23 | 32.71485 | -117.11122 | 1480 ft | 139 kts | 284° |
| 2026-05-06 23:24 | 32.71729 | -117.12259 | 1302 ft | 138 kts | 285° |
| 2026-05-06 23:24 | 32.71971 | -117.13335 | 1171 ft | 138 kts | 289° |
| 2026-05-06 23:24 | 32.72249 | -117.14396 | 985 ft | 134 kts | 288° |
| 2026-05-06 23:24 | 32.72506 | -117.15485 | 712 ft | 136 kts | 289° |
| 2026-05-06 23:25 | 32.72780 | -117.16558 | 433 ft | 138 kts | 287° |
| 2026-05-06 23:25 | 32.73036 | -117.17645 | 157 ft | 134 kts | 287° |
| 2026-05-06 23:25 | 32.73274 | -117.18629 | 20 ft | 111 kts | 286° |
| 2026-05-06 23:25 | 32.73434 | -117.19273 | 24 ft | 50 kts | 285° |
| 2026-05-06 23:26 | 32.73436 | -117.19457 | 23 ft | 14 kts | 251° |
| 2026-05-06 23:26 | 32.73405 | -117.19563 | 22 ft | 13 kts | 258° |
| 2026-05-06 23:26 | 32.73422 | -117.19669 | 24 ft | 13 kts | 286° |
| 2026-05-06 23:26 | 32.73445 | -117.19761 | 22 ft | 8 kts | 287° |
| 2026-05-06 23:27 | 32.73460 | -117.19825 | 22 ft | 8 kts | 285° |
| 2026-05-06 23:27 | 32.73476 | -117.19893 | 24 ft | 9 kts | 282° |
| 2026-05-06 23:27 | 32.73450 | -117.19951 | 22 ft | 9 kts | 194° |
| 2026-05-06 23:27 | 32.73394 | -117.19918 | 22 ft | 9 kts | 149° |
| 2026-05-06 23:28 | 32.73375 | -117.19904 | 22 ft | 2 kts | 149° |
| 2026-05-06 23:28 | 32.73371 | -117.19901 | 22 ft | 0 kts | 149° |